sensor_id;sensor_type;location;lat;lon;timestamp;temperature;humidity
59505;DHT22;45321;53.200;5.814;2023-04-01T00:01:40;11.30;90.90
59505;DHT22;45321;53.200;5.814;2023-04-01T00:04:18;11.30;90.90
59505;DHT22;45321;53.200;5.814;2023-04-01T00:06:46;11.30;91.00
59505;DHT22;45321;53.200;5.814;2023-04-01T00:09:13;11.40;91.00
59505;DHT22;45321;53.200;5.814;2023-04-01T00:11:39;11.40;91.00
59505;DHT22;45321;53.200;5.814;2023-04-01T00:14:06;11.30;91.00
59505;DHT22;45321;53.200;5.814;2023-04-01T00:16:32;11.30;91.00
59505;DHT22;45321;53.200;5.814;2023-04-01T00:18:58;11.40;90.90
59505;DHT22;45321;53.200;5.814;2023-04-01T00:21:24;11.30;90.90
59505;DHT22;45321;53.200;5.814;2023-04-01T00:23:51;11.30;90.90
59505;DHT22;45321;53.200;5.814;2023-04-01T00:26:17;11.40;91.00
59505;DHT22;45321;53.200;5.814;2023-04-01T00:28:44;11.40;91.00
59505;DHT22;45321;53.200;5.814;2023-04-01T00:31:14;11.40;90.90
59505;DHT22;45321;53.200;5.814;2023-04-01T00:33:40;11.30;90.80
59505;DHT22;45321;53.200;5.814;2023-04-01T00:36:16;11.30;90.70
59505;DHT22;45321;53.200;5.814;2023-04-01T00:38:42;11.30;90.80
59505;DHT22;45321;53.200;5.814;2023-04-01T00:41:10;11.30;90.70
59505;DHT22;45321;53.200;5.814;2023-04-01T00:43:44;11.30;90.80
59505;DHT22;45321;53.200;5.814;2023-04-01T00:46:10;11.30;90.90
59505;DHT22;45321;53.200;5.814;2023-04-01T00:48:39;11.30;90.80
59505;DHT22;45321;53.200;5.814;2023-04-01T00:51:07;11.30;90.80
59505;DHT22;45321;53.200;5.814;2023-04-01T00:53:39;11.30;90.80
59505;DHT22;45321;53.200;5.814;2023-04-01T00:56:17;11.30;90.80
59505;DHT22;45321;53.200;5.814;2023-04-01T00:58:50;11.30;90.80
59505;DHT22;45321;53.200;5.814;2023-04-01T01:01:18;11.30;90.70
59505;DHT22;45321;53.200;5.814;2023-04-01T01:03:44;11.30;90.70
59505;DHT22;45321;53.200;5.814;2023-04-01T01:06:33;11.30;90.70
59505;DHT22;45321;53.200;5.814;2023-04-01T01:09:51;11.30;90.70
59505;DHT22;45321;53.200;5.814;2023-04-01T01:12:22;11.30;90.80
59505;DHT22;45321;53.200;5.814;2023-04-01T01:18:05;11.30;90.90
59505;DHT22;45321;53.200;5.814;2023-04-01T01:21:04;11.30;90.80
59505;DHT22;45321;53.200;5.814;2023-04-01T01:27:02;11.20;90.70
59505;DHT22;45321;53.200;5.814;2023-04-01T01:37:39;11.30;90.90
59505;DHT22;45321;53.200;5.814;2023-04-01T01:40:09;11.30;90.90
59505;DHT22;45321;53.200;5.814;2023-04-01T01:42:39;11.30;90.80
59505;DHT22;45321;53.200;5.814;2023-04-01T01:45:07;11.30;90.90
59505;DHT22;45321;53.200;5.814;2023-04-01T01:47:34;11.30;90.90
59505;DHT22;45321;53.200;5.814;2023-04-01T01:50:01;11.30;90.90
59505;DHT22;45321;53.200;5.814;2023-04-01T01:52:28;11.30;90.80
59505;DHT22;45321;53.200;5.814;2023-04-01T01:54:56;11.20;90.80
59505;DHT22;45321;53.200;5.814;2023-04-01T01:57:34;11.30;90.90
59505;DHT22;45321;53.200;5.814;2023-04-01T02:00:06;11.20;91.00
59505;DHT22;45321;53.200;5.814;2023-04-01T02:02:40;11.20;91.00
59505;DHT22;45321;53.200;5.814;2023-04-01T02:05:10;11.20;91.00
59505;DHT22;45321;53.200;5.814;2023-04-01T02:07:39;11.20;91.10
59505;DHT22;45321;53.200;5.814;2023-04-01T02:10:05;11.20;91.20
59505;DHT22;45321;53.200;5.814;2023-04-01T02:12:33;11.30;91.20
59505;DHT22;45321;53.200;5.814;2023-04-01T02:15:06;11.30;91.20
59505;DHT22;45321;53.200;5.814;2023-04-01T02:17:34;11.30;91.10
59505;DHT22;45321;53.200;5.814;2023-04-01T02:20:26;11.30;91.20
59505;DHT22;45321;53.200;5.814;2023-04-01T02:22:54;11.30;91.30
59505;DHT22;45321;53.200;5.814;2023-04-01T02:25:25;11.30;91.00
59505;DHT22;45321;53.200;5.814;2023-04-01T02:27:53;11.20;91.00
59505;DHT22;45321;53.200;5.814;2023-04-01T02:30:21;11.20;91.10
59505;DHT22;45321;53.200;5.814;2023-04-01T02:32:48;11.20;91.20
59505;DHT22;45321;53.200;5.814;2023-04-01T02:35:16;11.10;91.30
59505;DHT22;45321;53.200;5.814;2023-04-01T02:37:43;11.10;91.40
59505;DHT22;45321;53.200;5.814;2023-04-01T02:40:12;11.20;91.40
59505;DHT22;45321;53.200;5.814;2023-04-01T02:42:38;11.20;91.40
59505;DHT22;45321;53.200;5.814;2023-04-01T02:45:05;11.20;91.50
59505;DHT22;45321;53.200;5.814;2023-04-01T02:47:31;11.20;91.50
59505;DHT22;45321;53.200;5.814;2023-04-01T02:49:57;11.20;91.50
59505;DHT22;45321;53.200;5.814;2023-04-01T02:52:26;11.20;91.50
59505;DHT22;45321;53.200;5.814;2023-04-01T02:54:52;11.20;91.50
59505;DHT22;45321;53.200;5.814;2023-04-01T02:57:18;11.10;91.50
59505;DHT22;45321;53.200;5.814;2023-04-01T02:59:44;11.20;91.50
59505;DHT22;45321;53.200;5.814;2023-04-01T03:02:10;11.30;91.50
59505;DHT22;45321;53.200;5.814;2023-04-01T03:04:35;11.30;91.50
59505;DHT22;45321;53.200;5.814;2023-04-01T03:07:01;11.30;91.50
59505;DHT22;45321;53.200;5.814;2023-04-01T03:09:27;11.30;91.50
59505;DHT22;45321;53.200;5.814;2023-04-01T03:11:54;11.20;91.50
59505;DHT22;45321;53.200;5.814;2023-04-01T03:14:20;11.30;91.50
59505;DHT22;45321;53.200;5.814;2023-04-01T03:16:46;11.30;91.50
59505;DHT22;45321;53.200;5.814;2023-04-01T03:19:11;11.30;91.50
59505;DHT22;45321;53.200;5.814;2023-04-01T03:21:37;11.30;91.40
59505;DHT22;45321;53.200;5.814;2023-04-01T03:24:03;11.20;91.40
59505;DHT22;45321;53.200;5.814;2023-04-01T03:26:29;11.30;91.40
59505;DHT22;45321;53.200;5.814;2023-04-01T03:28:55;11.30;91.40
59505;DHT22;45321;53.200;5.814;2023-04-01T03:31:21;11.30;91.40
59505;DHT22;45321;53.200;5.814;2023-04-01T03:33:47;11.30;91.40
59505;DHT22;45321;53.200;5.814;2023-04-01T03:36:13;11.20;91.40
59505;DHT22;45321;53.200;5.814;2023-04-01T03:38:43;11.20;91.40
59505;DHT22;45321;53.200;5.814;2023-04-01T03:41:14;11.20;91.40
59505;DHT22;45321;53.200;5.814;2023-04-01T03:43:39;11.30;91.30
59505;DHT22;45321;53.200;5.814;2023-04-01T03:46:05;11.20;91.30
59505;DHT22;45321;53.200;5.814;2023-04-01T03:48:31;11.20;91.30
59505;DHT22;45321;53.200;5.814;2023-04-01T03:50:57;11.30;91.30
59505;DHT22;45321;53.200;5.814;2023-04-01T03:53:22;11.30;91.20
59505;DHT22;45321;53.200;5.814;2023-04-01T03:55:48;11.20;91.10
59505;DHT22;45321;53.200;5.814;2023-04-01T03:58:16;11.20;91.20
59505;DHT22;45321;53.200;5.814;2023-04-01T04:00:42;11.30;91.30
59505;DHT22;45321;53.200;5.814;2023-04-01T04:03:08;11.20;91.20
59505;DHT22;45321;53.200;5.814;2023-04-01T04:05:34;11.20;91.20
59505;DHT22;45321;53.200;5.814;2023-04-01T04:08:00;11.20;91.20
59505;DHT22;45321;53.200;5.814;2023-04-01T04:10:26;11.20;91.20
59505;DHT22;45321;53.200;5.814;2023-04-01T04:12:52;11.20;91.20
59505;DHT22;45321;53.200;5.814;2023-04-01T04:15:18;11.30;91.20
59505;DHT22;45321;53.200;5.814;2023-04-01T04:17:47;11.30;91.20
59505;DHT22;45321;53.200;5.814;2023-04-01T04:20:13;11.30;91.20
59505;DHT22;45321;53.200;5.814;2023-04-01T04:22:39;11.20;91.10
59505;DHT22;45321;53.200;5.814;2023-04-01T04:25:05;11.20;91.00
59505;DHT22;45321;53.200;5.814;2023-04-01T04:27:31;11.20;91.10
59505;DHT22;45321;53.200;5.814;2023-04-01T04:29:57;11.20;91.20
59505;DHT22;45321;53.200;5.814;2023-04-01T04:32:23;11.20;91.20
59505;DHT22;45321;53.200;5.814;2023-04-01T04:34:49;11.20;91.10
59505;DHT22;45321;53.200;5.814;2023-04-01T04:37:14;11.30;91.20
59505;DHT22;45321;53.200;5.814;2023-04-01T04:39:40;11.20;91.20
59505;DHT22;45321;53.200;5.814;2023-04-01T04:42:06;11.30;91.20
59505;DHT22;45321;53.200;5.814;2023-04-01T04:44:31;11.20;91.20
59505;DHT22;45321;53.200;5.814;2023-04-01T04:46:57;11.20;91.20
59505;DHT22;45321;53.200;5.814;2023-04-01T04:49:23;11.20;91.20
59505;DHT22;45321;53.200;5.814;2023-04-01T04:51:49;11.20;91.30
59505;DHT22;45321;53.200;5.814;2023-04-01T04:54:15;11.20;91.30
59505;DHT22;45321;53.200;5.814;2023-04-01T04:56:40;11.30;91.30
59505;DHT22;45321;53.200;5.814;2023-04-01T04:59:06;11.20;91.20
59505;DHT22;45321;53.200;5.814;2023-04-01T05:01:32;11.30;91.20
59505;DHT22;45321;53.200;5.814;2023-04-01T05:03:59;11.30;91.10
59505;DHT22;45321;53.200;5.814;2023-04-01T05:06:25;11.20;91.10
59505;DHT22;45321;53.200;5.814;2023-04-01T05:08:51;11.30;91.10
59505;DHT22;45321;53.200;5.814;2023-04-01T05:11:18;11.30;91.10
59505;DHT22;45321;53.200;5.814;2023-04-01T05:13:46;11.30;91.10
59505;DHT22;45321;53.200;5.814;2023-04-01T05:16:14;11.30;91.10
59505;DHT22;45321;53.200;5.814;2023-04-01T05:18:40;11.20;91.00
59505;DHT22;45321;53.200;5.814;2023-04-01T05:21:08;11.20;91.10
59505;DHT22;45321;53.200;5.814;2023-04-01T05:23:34;11.20;91.10
59505;DHT22;45321;53.200;5.814;2023-04-01T05:26:07;11.20;91.20
59505;DHT22;45321;53.200;5.814;2023-04-01T05:28:33;11.20;91.10
59505;DHT22;45321;53.200;5.814;2023-04-01T05:31:00;11.20;91.10
59505;DHT22;45321;53.200;5.814;2023-04-01T05:33:27;11.20;91.10
59505;DHT22;45321;53.200;5.814;2023-04-01T05:35:54;11.20;91.10
59505;DHT22;45321;53.200;5.814;2023-04-01T05:38:20;11.20;91.10
59505;DHT22;45321;53.200;5.814;2023-04-01T05:40:45;11.20;91.10
59505;DHT22;45321;53.200;5.814;2023-04-01T05:43:11;11.20;91.20
59505;DHT22;45321;53.200;5.814;2023-04-01T05:45:37;11.20;91.10
59505;DHT22;45321;53.200;5.814;2023-04-01T05:48:03;11.20;91.20
59505;DHT22;45321;53.200;5.814;2023-04-01T05:50:29;11.20;91.10
59505;DHT22;45321;53.200;5.814;2023-04-01T05:52:55;11.20;91.10
59505;DHT22;45321;53.200;5.814;2023-04-01T05:55:21;11.20;91.10
59505;DHT22;45321;53.200;5.814;2023-04-01T05:57:46;11.20;91.10
59505;DHT22;45321;53.200;5.814;2023-04-01T06:00:14;11.20;91.10
59505;DHT22;45321;53.200;5.814;2023-04-01T06:02:40;11.20;91.10
59505;DHT22;45321;53.200;5.814;2023-04-01T06:05:20;11.20;91.10
59505;DHT22;45321;53.200;5.814;2023-04-01T06:07:47;11.20;91.10
59505;DHT22;45321;53.200;5.814;2023-04-01T06:10:18;11.20;91.20
59505;DHT22;45321;53.200;5.814;2023-04-01T06:13:04;11.20;91.40
59505;DHT22;45321;53.200;5.814;2023-04-01T06:15:40;11.20;91.30
59505;DHT22;45321;53.200;5.814;2023-04-01T06:21:02;11.30;91.20
59505;DHT22;45321;53.200;5.814;2023-04-01T06:45:32;11.30;91.00
59505;DHT22;45321;53.200;5.814;2023-04-01T06:48:14;11.30;91.00
59505;DHT22;45321;53.200;5.814;2023-04-01T06:54:00;11.30;91.00
59505;DHT22;45321;53.200;5.814;2023-04-01T06:56:28;11.30;91.00
59505;DHT22;45321;53.200;5.814;2023-04-01T07:01:34;11.30;91.00
59505;DHT22;45321;53.200;5.814;2023-04-01T07:04:26;11.30;90.90
59505;DHT22;45321;53.200;5.814;2023-04-01T07:07:21;11.30;91.00
59505;DHT22;45321;53.200;5.814;2023-04-01T07:09:52;11.40;90.90
59505;DHT22;45321;53.200;5.814;2023-04-01T07:15:12;11.40;90.80
59505;DHT22;45321;53.200;5.814;2023-04-01T07:17:42;11.40;90.90
59505;DHT22;45321;53.200;5.814;2023-04-01T07:22:54;11.40;91.00
59505;DHT22;45321;53.200;5.814;2023-04-01T07:25:34;11.50;91.00
59505;DHT22;45321;53.200;5.814;2023-04-01T07:28:04;11.40;91.00
59505;DHT22;45321;53.200;5.814;2023-04-01T07:30:44;11.50;91.00
59505;DHT22;45321;53.200;5.814;2023-04-01T07:33:21;11.50;90.80
59505;DHT22;45321;53.200;5.814;2023-04-01T07:41:23;11.60;90.90
59505;DHT22;45321;53.200;5.814;2023-04-01T07:46:50;11.70;90.70
59505;DHT22;45321;53.200;5.814;2023-04-01T07:49:50;11.70;90.60
59505;DHT22;45321;53.200;5.814;2023-04-01T07:55:10;11.70;90.40
59505;DHT22;45321;53.200;5.814;2023-04-01T08:00:24;11.60;90.70
59505;DHT22;45321;53.200;5.814;2023-04-01T08:03:07;11.70;90.80
59505;DHT22;45321;53.200;5.814;2023-04-01T08:10:52;11.90;91.10
59505;DHT22;45321;53.200;5.814;2023-04-01T08:16:43;12.20;90.60
59505;DHT22;45321;53.200;5.814;2023-04-01T08:22:42;12.10;89.50
59505;DHT22;45321;53.200;5.814;2023-04-01T08:25:17;12.00;89.60
59505;DHT22;45321;53.200;5.814;2023-04-01T08:27:48;12.10;89.50
59505;DHT22;45321;53.200;5.814;2023-04-01T08:30:25;12.00;89.60
59505;DHT22;45321;53.200;5.814;2023-04-01T08:33:17;12.00;89.30
59505;DHT22;45321;53.200;5.814;2023-04-01T08:35:53;11.90;89.30
59505;DHT22;45321;53.200;5.814;2023-04-01T08:55:30;12.10;89.70
59505;DHT22;45321;53.200;5.814;2023-04-01T08:58:28;12.20;89.40
59505;DHT22;45321;53.200;5.814;2023-04-01T09:10:15;12.50;88.90
59505;DHT22;45321;53.200;5.814;2023-04-01T09:15:35;12.80;89.00
59505;DHT22;45321;53.200;5.814;2023-04-01T09:29:56;12.80;87.50
59505;DHT22;45321;53.200;5.814;2023-04-01T09:35:23;12.90;87.60
59505;DHT22;45321;53.200;5.814;2023-04-01T09:43:26;12.90;85.80
59505;DHT22;45321;53.200;5.814;2023-04-01T09:46:15;12.80;86.20
59505;DHT22;45321;53.200;5.814;2023-04-01T09:55:28;12.80;87.50
59505;DHT22;45321;53.200;5.814;2023-04-01T10:15:39;12.70;85.40
59505;DHT22;45321;53.200;5.814;2023-04-01T10:24:10;12.80;86.10
59505;DHT22;45321;53.200;5.814;2023-04-01T10:27:09;12.80;85.70
59505;DHT22;45321;53.200;5.814;2023-04-01T10:51:25;12.50;84.90
59505;DHT22;45321;53.200;5.814;2023-04-01T10:59:15;12.40;85.00
59505;DHT22;45321;53.200;5.814;2023-04-01T11:09:00;12.60;84.20
59505;DHT22;45321;53.200;5.814;2023-04-01T11:32:52;12.50;82.60
59505;DHT22;45321;53.200;5.814;2023-04-01T11:44:01;12.80;82.50
59505;DHT22;45321;53.200;5.814;2023-04-01T12:05:58;12.80;81.50
59505;DHT22;45321;53.200;5.814;2023-04-01T12:08:31;12.90;81.80
59505;DHT22;45321;53.200;5.814;2023-04-01T12:11:38;12.90;81.90
59505;DHT22;45321;53.200;5.814;2023-04-01T12:17:21;13.00;81.70
59505;DHT22;45321;53.200;5.814;2023-04-01T12:22:41;13.10;79.90
59505;DHT22;45321;53.200;5.814;2023-04-01T12:36:51;12.90;80.50
59505;DHT22;45321;53.200;5.814;2023-04-01T12:55:36;12.50;81.30
59505;DHT22;45321;53.200;5.814;2023-04-01T12:58:07;12.50;80.60
59505;DHT22;45321;53.200;5.814;2023-04-01T13:15:34;12.30;80.30
59505;DHT22;45321;53.200;5.814;2023-04-01T13:18:43;12.30;80.90
59505;DHT22;45321;53.200;5.814;2023-04-01T13:24:07;12.20;80.40
59505;DHT22;45321;53.200;5.814;2023-04-01T13:26:57;12.20;80.50
59505;DHT22;45321;53.200;5.814;2023-04-01T13:29:35;12.20;80.40
59505;DHT22;45321;53.200;5.814;2023-04-01T13:37:46;12.00;80.70
59505;DHT22;45321;53.200;5.814;2023-04-01T13:51:26;11.90;80.20
59505;DHT22;45321;53.200;5.814;2023-04-01T14:00:35;12.00;79.70
59505;DHT22;45321;53.200;5.814;2023-04-01T14:06:17;12.00;80.40
59505;DHT22;45321;53.200;5.814;2023-04-01T14:09:11;11.90;80.00
59505;DHT22;45321;53.200;5.814;2023-04-01T14:17:20;11.80;79.60
59505;DHT22;45321;53.200;5.814;2023-04-01T14:31:34;11.60;79.70
59505;DHT22;45321;53.200;5.814;2023-04-01T14:37:25;11.60;79.70
59505;DHT22;45321;53.200;5.814;2023-04-01T14:51:18;11.60;79.40
59505;DHT22;45321;53.200;5.814;2023-04-01T14:54:29;11.60;79.60
59505;DHT22;45321;53.200;5.814;2023-04-01T14:57:16;11.50;79.10
59505;DHT22;45321;53.200;5.814;2023-04-01T15:00:18;11.50;79.70
59505;DHT22;45321;53.200;5.814;2023-04-01T15:03:11;11.40;79.70
59505;DHT22;45321;53.200;5.814;2023-04-01T15:14:13;11.30;79.60
59505;DHT22;45321;53.200;5.814;2023-04-01T15:19:24;11.20;79.40
59505;DHT22;45321;53.200;5.814;2023-04-01T15:25:22;11.10;79.30
59505;DHT22;45321;53.200;5.814;2023-04-01T15:30:34;11.00;79.40
59505;DHT22;45321;53.200;5.814;2023-04-01T15:33:06;10.90;79.70
59505;DHT22;45321;53.200;5.814;2023-04-01T15:35:50;10.90;79.30
59505;DHT22;45321;53.200;5.814;2023-04-01T15:38:36;10.80;79.50
59505;DHT22;45321;53.200;5.814;2023-04-01T15:41:11;10.70;79.20
59505;DHT22;45321;53.200;5.814;2023-04-01T15:43:46;10.60;79.60
59505;DHT22;45321;53.200;5.814;2023-04-01T15:46:44;10.60;79.70
59505;DHT22;45321;53.200;5.814;2023-04-01T15:49:18;10.60;79.90
59505;DHT22;45321;53.200;5.814;2023-04-01T15:51:52;10.60;79.90
59505;DHT22;45321;53.200;5.814;2023-04-01T15:57:24;10.50;79.50
59505;DHT22;45321;53.200;5.814;2023-04-01T16:00:09;10.40;79.50
59505;DHT22;45321;53.200;5.814;2023-04-01T16:02:53;10.40;79.40
59505;DHT22;45321;53.200;5.814;2023-04-01T16:05:47;10.40;79.60
59505;DHT22;45321;53.200;5.814;2023-04-01T16:13:55;10.40;79.70
59505;DHT22;45321;53.200;5.814;2023-04-01T16:16:36;10.40;79.70
59505;DHT22;45321;53.200;5.814;2023-04-01T16:19:22;10.30;79.80
59505;DHT22;45321;53.200;5.814;2023-04-01T16:24:38;10.30;79.70
59505;DHT22;45321;53.200;5.814;2023-04-01T16:29:45;10.20;80.00
59505;DHT22;45321;53.200;5.814;2023-04-01T16:35:16;10.10;79.80
59505;DHT22;45321;53.200;5.814;2023-04-01T16:41:07;10.00;79.60
59505;DHT22;45321;53.200;5.814;2023-04-01T16:49:03;9.90;80.60
59505;DHT22;45321;53.200;5.814;2023-04-01T16:54:28;9.80;80.60
59505;DHT22;45321;53.200;5.814;2023-04-01T16:57:17;9.80;80.70
59505;DHT22;45321;53.200;5.814;2023-04-01T17:02:38;9.70;81.20
59505;DHT22;45321;53.200;5.814;2023-04-01T17:05:12;9.70;81.10
59505;DHT22;45321;53.200;5.814;2023-04-01T17:07:47;9.60;80.60
59505;DHT22;45321;53.200;5.814;2023-04-01T17:13:39;9.50;80.80
59505;DHT22;45321;53.200;5.814;2023-04-01T17:21:54;9.40;80.90
59505;DHT22;45321;53.200;5.814;2023-04-01T17:27:49;9.30;80.90
59505;DHT22;45321;53.200;5.814;2023-04-01T17:36:04;9.30;80.80
59505;DHT22;45321;53.200;5.814;2023-04-01T17:41:41;9.30;80.80
59505;DHT22;45321;53.200;5.814;2023-04-01T17:44:57;9.30;81.10
59505;DHT22;45321;53.200;5.814;2023-04-01T17:50:23;9.20;80.90
59505;DHT22;45321;53.200;5.814;2023-04-01T17:53:03;9.20;80.80
59505;DHT22;45321;53.200;5.814;2023-04-01T17:55:43;9.10;80.80
59505;DHT22;45321;53.200;5.814;2023-04-01T17:58:29;9.00;81.10
59505;DHT22;45321;53.200;5.814;2023-04-01T18:01:22;9.00;81.20
59505;DHT22;45321;53.200;5.814;2023-04-01T18:07:02;9.00;81.50
59505;DHT22;45321;53.200;5.814;2023-04-01T18:12:18;8.90;81.50
59505;DHT22;45321;53.200;5.814;2023-04-01T18:15:08;8.90;81.40
59505;DHT22;45321;53.200;5.814;2023-04-01T18:17:50;8.90;81.50
59505;DHT22;45321;53.200;5.814;2023-04-01T18:20:43;8.80;81.00
59505;DHT22;45321;53.200;5.814;2023-04-01T18:26:39;8.90;81.30
59505;DHT22;45321;53.200;5.814;2023-04-01T18:29:41;8.90;81.10
59505;DHT22;45321;53.200;5.814;2023-04-01T18:32:26;8.90;80.80
59505;DHT22;45321;53.200;5.814;2023-04-01T18:37:44;8.80;80.90
59505;DHT22;45321;53.200;5.814;2023-04-01T18:43:28;8.70;80.70
59505;DHT22;45321;53.200;5.814;2023-04-01T18:46:05;8.70;80.80
59505;DHT22;45321;53.200;5.814;2023-04-01T18:51:45;8.70;80.90
59505;DHT22;45321;53.200;5.814;2023-04-01T18:56:44;8.70;80.80
59505;DHT22;45321;53.200;5.814;2023-04-01T19:02:19;8.70;80.60
59505;DHT22;45321;53.200;5.814;2023-04-01T19:16:21;8.50;80.20
59505;DHT22;45321;53.200;5.814;2023-04-01T19:21:47;8.40;80.00
59505;DHT22;45321;53.200;5.814;2023-04-01T19:30:14;8.30;79.70
59505;DHT22;45321;53.200;5.814;2023-04-01T19:40:58;8.30;79.80
59505;DHT22;45321;53.200;5.814;2023-04-01T19:51:40;8.20;80.10
59505;DHT22;45321;53.200;5.814;2023-04-01T19:54:38;8.10;79.80
59505;DHT22;45321;53.200;5.814;2023-04-01T20:00:09;8.10;79.80
59505;DHT22;45321;53.200;5.814;2023-04-01T20:05:29;8.10;79.60
59505;DHT22;45321;53.200;5.814;2023-04-01T20:08:25;8.00;79.80
59505;DHT22;45321;53.200;5.814;2023-04-01T20:11:01;8.10;80.00
59505;DHT22;45321;53.200;5.814;2023-04-01T20:16:09;8.10;79.60
59505;DHT22;45321;53.200;5.814;2023-04-01T20:18:40;8.10;79.70
59505;DHT22;45321;53.200;5.814;2023-04-01T20:24:07;8.00;80.00
59505;DHT22;45321;53.200;5.814;2023-04-01T20:26:51;8.00;79.80
59505;DHT22;45321;53.200;5.814;2023-04-01T20:37:40;7.90;79.20
59505;DHT22;45321;53.200;5.814;2023-04-01T20:40:26;7.90;78.90
59505;DHT22;45321;53.200;5.814;2023-04-01T20:45:48;7.80;79.00
59505;DHT22;45321;53.200;5.814;2023-04-01T20:50:58;7.80;79.00
59505;DHT22;45321;53.200;5.814;2023-04-01T20:53:36;7.80;79.10
59505;DHT22;45321;53.200;5.814;2023-04-01T21:01:44;7.70;78.80
59505;DHT22;45321;53.200;5.814;2023-04-01T21:04:33;7.70;79.00
59505;DHT22;45321;53.200;5.814;2023-04-01T21:07:21;7.70;79.00
59505;DHT22;45321;53.200;5.814;2023-04-01T21:10:17;7.60;78.50
59505;DHT22;45321;53.200;5.814;2023-04-01T21:12:54;7.70;78.80
59505;DHT22;45321;53.200;5.814;2023-04-01T21:21:33;7.60;78.50
59505;DHT22;45321;53.200;5.814;2023-04-01T21:34:51;7.50;78.30
59505;DHT22;45321;53.200;5.814;2023-04-01T21:37:33;7.50;78.20
59505;DHT22;45321;53.200;5.814;2023-04-01T21:45:49;7.40;78.10
59505;DHT22;45321;53.200;5.814;2023-04-01T21:48:29;7.40;77.80
59505;DHT22;45321;53.200;5.814;2023-04-01T21:54:34;7.30;77.90
59505;DHT22;45321;53.200;5.814;2023-04-01T21:59:55;7.20;77.70
59505;DHT22;45321;53.200;5.814;2023-04-01T22:12:08;7.20;78.40
59505;DHT22;45321;53.200;5.814;2023-04-01T22:17:35;7.10;78.30
59505;DHT22;45321;53.200;5.814;2023-04-01T22:24:11;7.10;77.80
59505;DHT22;45321;53.200;5.814;2023-04-01T22:26:12;7.10;77.80
59505;DHT22;45321;53.200;5.814;2023-04-01T22:28:46;7.10;77.90
59505;DHT22;45321;53.200;5.814;2023-04-01T22:31:23;7.10;77.80
59505;DHT22;45321;53.200;5.814;2023-04-01T22:34:07;7.10;77.30
59505;DHT22;45321;53.200;5.814;2023-04-01T22:47:20;7.00;76.70
59505;DHT22;45321;53.200;5.814;2023-04-01T22:49:51;6.90;76.90
59505;DHT22;45321;53.200;5.814;2023-04-01T22:52:26;7.00;77.00
59505;DHT22;45321;53.200;5.814;2023-04-01T22:55:00;7.00;76.50
59505;DHT22;45321;53.200;5.814;2023-04-01T22:57:48;6.90;76.30
59505;DHT22;45321;53.200;5.814;2023-04-01T23:00:38;6.80;76.40
59505;DHT22;45321;53.200;5.814;2023-04-01T23:03:41;6.80;76.90
59505;DHT22;45321;53.200;5.814;2023-04-01T23:06:20;6.80;76.40
59505;DHT22;45321;53.200;5.814;2023-04-01T23:22:46;6.50;76.40
59505;DHT22;45321;53.200;5.814;2023-04-01T23:25:28;6.40;76.00
59505;DHT22;45321;53.200;5.814;2023-04-01T23:30:49;6.30;76.10
59505;DHT22;45321;53.200;5.814;2023-04-01T23:36:02;6.20;76.40
59505;DHT22;45321;53.200;5.814;2023-04-01T23:38:39;6.20;76.10
59505;DHT22;45321;53.200;5.814;2023-04-01T23:41:18;6.10;76.40
59505;DHT22;45321;53.200;5.814;2023-04-01T23:46:22;6.10;76.60
59505;DHT22;45321;53.200;5.814;2023-04-01T23:48:48;6.00;76.60
59505;DHT22;45321;53.200;5.814;2023-04-01T23:51:22;6.00;76.70
59505;DHT22;45321;53.200;5.814;2023-04-01T23:53:57;6.00;76.90
59505;DHT22;45321;53.200;5.814;2023-04-01T23:56:34;6.00;77.00
59505;DHT22;45321;53.200;5.814;2023-04-01T23:59:02;6.00;77.10
